sensor_id;sensor_type;location;lat;lon;timestamp;pressure;altitude;pressure_sealevel;temperature;humidity
50166;BME280;36071;48.140;11.516;2022-08-01T00:02:03;95520.0;;;23.0;48.3
50166;BME280;36071;48.140;11.516;2022-08-01T00:07:03;95530.0;;;23.0;48.3
50166;BME280;36071;48.140;11.516;2022-08-01T00:12:03;95540.0;;;22.9;48.5
50166;BME280;36071;48.140;11.516;2022-08-01T00:22:03;95550.0;;;23.0;48.2
50166;BME280;36071;48.140;11.516;2022-08-01T00:27:03;95550.0;;;23.0;47.9
50166;BME280;36071;48.140;11.516;2022-08-01T00:32:03;95540.0;;;22.9;48.2
50166;BME280;36071;48.140;11.516;2022-08-01T00:37:03;95550.0;;;22.8;48.2
50166;BME280;36071;48.140;11.516;2022-08-01T00:42:05;95540.0;;;22.8;48.3
50166;BME280;36071;48.140;11.516;2022-08-01T00:47:03;95540.0;;;22.6;48.4
50166;BME280;36071;48.140;11.516;2022-08-01T00:52:03;95540.0;;;22.6;48.8
50166;BME280;36071;48.140;11.516;2022-08-01T00:57:03;95550.0;;;22.5;48.6
50166;BME280;36071;48.140;11.516;2022-08-01T01:02:03;95540.0;;;22.5;48.8
50166;BME280;36071;48.140;11.516;2022-08-01T01:12:07;95550.0;;;22.4;48.8
50166;BME280;36071;48.140;11.516;2022-08-01T01:17:03;95550.0;;;22.4;49.0
50166;BME280;36071;48.140;11.516;2022-08-01T01:22:08;95550.0;;;22.1;49.5
50166;BME280;36071;48.140;11.516;2022-08-01T01:27:06;95550.0;;;22.2;49.2
50166;BME280;36071;48.140;11.516;2022-08-01T01:32:04;95560.0;;;22.2;49.3
50166;BME280;36071;48.140;11.516;2022-08-01T01:37:04;95550.0;;;22.2;49.2
50166;BME280;36071;48.140;11.516;2022-08-01T01:42:03;95550.0;;;22.1;49.2
50166;BME280;36071;48.140;11.516;2022-08-01T01:47:03;95550.0;;;22.0;49.6
50166;BME280;36071;48.140;11.516;2022-08-01T01:52:03;95560.0;;;22.0;49.7
50166;BME280;36071;48.140;11.516;2022-08-01T01:57:03;95550.0;;;21.8;50.0
50166;BME280;36071;48.140;11.516;2022-08-01T02:02:04;95550.0;;;21.9;49.9
50166;BME280;36071;48.140;11.516;2022-08-01T02:07:03;95560.0;;;21.9;49.7
50166;BME280;36071;48.140;11.516;2022-08-01T02:12:03;95560.0;;;21.8;49.8
50166;BME280;36071;48.140;11.516;2022-08-01T02:17:03;95560.0;;;21.8;49.7
50166;BME280;36071;48.140;11.516;2022-08-01T02:22:04;95540.0;;;21.7;49.4
50166;BME280;36071;48.140;11.516;2022-08-01T02:27:04;95560.0;;;21.7;49.5
50166;BME280;36071;48.140;11.516;2022-08-01T02:32:03;95570.0;;;21.7;49.5
50166;BME280;36071;48.140;11.516;2022-08-01T02:37:03;95570.0;;;21.5;50.0
50166;BME280;36071;48.140;11.516;2022-08-01T02:42:04;95570.0;;;21.6;49.8
50166;BME280;36071;48.140;11.516;2022-08-01T02:47:03;95570.0;;;21.5;50.1
50166;BME280;36071;48.140;11.516;2022-08-01T02:52:03;95550.0;;;21.3;49.8
50166;BME280;36071;48.140;11.516;2022-08-01T02:57:03;95570.0;;;21.5;49.8
50166;BME280;36071;48.140;11.516;2022-08-01T03:02:03;95580.0;;;21.4;49.8
50166;BME280;36071;48.140;11.516;2022-08-01T03:07:04;95580.0;;;21.4;49.7
50166;BME280;36071;48.140;11.516;2022-08-01T03:12:04;95580.0;;;21.3;49.8
50166;BME280;36071;48.140;11.516;2022-08-01T03:22:03;95590.0;;;21.3;49.7
50166;BME280;36071;48.140;11.516;2022-08-01T03:27:03;95590.0;;;21.2;50.1
50166;BME280;36071;48.140;11.516;2022-08-01T03:32:03;95580.0;;;21.2;50.2
50166;BME280;36071;48.140;11.516;2022-08-01T03:37:03;95590.0;;;21.1;50.5
50166;BME280;36071;48.140;11.516;2022-08-01T03:42:05;95580.0;;;21.1;50.8
50166;BME280;36071;48.140;11.516;2022-08-01T03:47:04;95600.0;;;21.1;50.7
50166;BME280;36071;48.140;11.516;2022-08-01T03:52:06;95600.0;;;21.0;51.1
50166;BME280;36071;48.140;11.516;2022-08-01T04:02:03;95610.0;;;21.0;51.0
50166;BME280;36071;48.140;11.516;2022-08-01T04:07:03;95620.0;;;20.9;51.5
50166;BME280;36071;48.140;11.516;2022-08-01T04:17:03;95620.0;;;20.8;51.8
50166;BME280;36071;48.140;11.516;2022-08-01T04:22:03;95630.0;;;20.9;51.8
50166;BME280;36071;48.140;11.516;2022-08-01T04:27:04;95630.0;;;20.9;51.7
50166;BME280;36071;48.140;11.516;2022-08-01T04:32:03;95630.0;;;20.8;51.8
50166;BME280;36071;48.140;11.516;2022-08-01T04:37:03;95640.0;;;20.9;51.6
50166;BME280;36071;48.140;11.516;2022-08-01T04:42:03;95650.0;;;20.9;51.5
50166;BME280;36071;48.140;11.516;2022-08-01T04:47:03;95650.0;;;20.8;51.6
50166;BME280;36071;48.140;11.516;2022-08-01T04:52:03;95650.0;;;20.8;51.7
50166;BME280;36071;48.140;11.516;2022-08-01T05:02:03;95650.0;;;20.7;52.1
50166;BME280;36071;48.140;11.516;2022-08-01T05:07:03;95650.0;;;20.8;51.6
50166;BME280;36071;48.140;11.516;2022-08-01T05:12:04;95660.0;;;20.9;51.6
50166;BME280;36071;48.140;11.516;2022-08-01T05:17:05;95660.0;;;21.0;51.4
50166;BME280;36071;48.140;11.516;2022-08-01T05:22:04;95660.0;;;21.1;51.4
50166;BME280;36071;48.140;11.516;2022-08-01T05:27:03;95660.0;;;21.1;51.3
50166;BME280;36071;48.140;11.516;2022-08-01T05:32:03;95670.0;;;21.1;51.2
50166;BME280;36071;48.140;11.516;2022-08-01T05:37:03;95680.0;;;21.1;51.2
50166;BME280;36071;48.140;11.516;2022-08-01T05:42:03;95680.0;;;21.2;51.1
50166;BME280;36071;48.140;11.516;2022-08-01T05:47:03;95680.0;;;21.3;51.2
50166;BME280;36071;48.140;11.516;2022-08-01T05:52:03;95670.0;;;21.3;51.0
50166;BME280;36071;48.140;11.516;2022-08-01T05:57:03;95680.0;;;21.3;51.1
50166;BME280;36071;48.140;11.516;2022-08-01T06:02:03;95690.0;;;21.4;50.9
50166;BME280;36071;48.140;11.516;2022-08-01T06:07:03;95680.0;;;21.4;50.9
50166;BME280;36071;48.140;11.516;2022-08-01T06:12:03;95680.0;;;21.4;50.7
50166;BME280;36071;48.140;11.516;2022-08-01T06:17:03;95680.0;;;21.4;50.4
50166;BME280;36071;48.140;11.516;2022-08-01T06:22:03;95690.0;;;21.5;50.6
50166;BME280;36071;48.140;11.516;2022-08-01T06:27:03;95690.0;;;21.5;50.4
50166;BME280;36071;48.140;11.516;2022-08-01T06:32:03;95700.0;;;21.6;50.1
50166;BME280;36071;48.140;11.516;2022-08-01T06:37:03;95700.0;;;21.7;49.9
50166;BME280;36071;48.140;11.516;2022-08-01T06:42:03;95700.0;;;21.7;50.1
50166;BME280;36071;48.140;11.516;2022-08-01T06:47:03;95700.0;;;21.8;50.0
50166;BME280;36071;48.140;11.516;2022-08-01T06:52:03;95700.0;;;21.8;49.9
50166;BME280;36071;48.140;11.516;2022-08-01T06:57:04;95700.0;;;21.9;49.6
50166;BME280;36071;48.140;11.516;2022-08-01T07:02:03;95700.0;;;22.0;50.1
50166;BME280;36071;48.140;11.516;2022-08-01T07:07:03;95700.0;;;22.0;49.9
50166;BME280;36071;48.140;11.516;2022-08-01T07:12:03;95700.0;;;22.0;49.6
50166;BME280;36071;48.140;11.516;2022-08-01T07:17:03;95700.0;;;22.1;49.3
50166;BME280;36071;48.140;11.516;2022-08-01T07:22:03;95690.0;;;22.2;49.4
50166;BME280;36071;48.140;11.516;2022-08-01T07:27:03;95700.0;;;22.3;49.6
50166;BME280;36071;48.140;11.516;2022-08-01T07:32:03;95700.0;;;22.4;49.6
50166;BME280;36071;48.140;11.516;2022-08-01T07:37:03;95700.0;;;22.5;49.3
50166;BME280;36071;48.140;11.516;2022-08-01T07:42:03;95690.0;;;22.6;49.3
50166;BME280;36071;48.140;11.516;2022-08-01T07:47:04;95680.0;;;22.7;49.3
50166;BME280;36071;48.140;11.516;2022-08-01T07:52:03;95680.0;;;22.8;49.1
50166;BME280;36071;48.140;11.516;2022-08-01T07:57:03;95690.0;;;22.9;48.8
50166;BME280;36071;48.140;11.516;2022-08-01T08:02:03;95690.0;;;23.1;48.7
50166;BME280;36071;48.140;11.516;2022-08-01T08:07:03;95700.0;;;23.7;47.5
50166;BME280;36071;48.140;11.516;2022-08-01T08:12:03;95690.0;;;24.2;45.9
50166;BME280;36071;48.140;11.516;2022-08-01T08:17:03;95690.0;;;24.4;45.5
50166;BME280;36071;48.140;11.516;2022-08-01T08:22:03;95680.0;;;24.8;44.9
50166;BME280;36071;48.140;11.516;2022-08-01T08:27:03;95700.0;;;25.1;44.4
50166;BME280;36071;48.140;11.516;2022-08-01T08:32:03;95670.0;;;25.4;43.8
50166;BME280;36071;48.140;11.516;2022-08-01T08:37:03;95680.0;;;25.7;43.0
50166;BME280;36071;48.140;11.516;2022-08-01T08:42:05;95680.0;;;25.9;41.9
50166;BME280;36071;48.140;11.516;2022-08-01T08:47:03;95670.0;;;26.2;41.5
50166;BME280;36071;48.140;11.516;2022-08-01T08:52:03;95670.0;;;26.5;41.4
50166;BME280;36071;48.140;11.516;2022-08-01T09:02:03;95670.0;;;26.8;40.6
50166;BME280;36071;48.140;11.516;2022-08-01T09:07:04;95670.0;;;27.1;39.8
50166;BME280;36071;48.140;11.516;2022-08-01T09:12:03;95660.0;;;27.1;40.0
50166;BME280;36071;48.140;11.516;2022-08-01T09:17:04;95670.0;;;27.3;38.7
50166;BME280;36071;48.140;11.516;2022-08-01T09:22:04;95680.0;;;27.6;38.4
50166;BME280;36071;48.140;11.516;2022-08-01T09:27:15;95670.0;;;27.6;38.0
50166;BME280;36071;48.140;11.516;2022-08-01T09:32:04;95680.0;;;27.6;38.3
50166;BME280;36071;48.140;11.516;2022-08-01T09:37:03;95670.0;;;27.6;38.9
50166;BME280;36071;48.140;11.516;2022-08-01T09:42:18;95670.0;;;28.1;37.4
50166;BME280;36071;48.140;11.516;2022-08-01T09:47:03;95660.0;;;28.2;37.0
50166;BME280;36071;48.140;11.516;2022-08-01T09:52:10;95660.0;;;28.8;36.2
50166;BME280;36071;48.140;11.516;2022-08-01T10:02:03;95650.0;;;28.8;36.7
50166;BME280;36071;48.140;11.516;2022-08-01T10:12:03;95640.0;;;28.9;36.0
50166;BME280;36071;48.140;11.516;2022-08-01T10:17:03;95650.0;;;29.1;35.8
50166;BME280;36071;48.140;11.516;2022-08-01T10:22:04;95640.0;;;29.8;34.7
50166;BME280;36071;48.140;11.516;2022-08-01T10:27:04;95640.0;;;29.8;34.5
50166;BME280;36071;48.140;11.516;2022-08-01T10:32:04;95630.0;;;29.8;34.8
50166;BME280;36071;48.140;11.516;2022-08-01T10:37:05;95630.0;;;29.8;34.2
50166;BME280;36071;48.140;11.516;2022-08-01T10:42:03;95630.0;;;29.8;33.8
50166;BME280;36071;48.140;11.516;2022-08-01T10:47:08;95620.0;;;30.1;33.8
50166;BME280;36071;48.140;11.516;2022-08-01T10:52:03;95630.0;;;30.2;33.7
50166;BME280;36071;48.140;11.516;2022-08-01T10:57:03;95620.0;;;30.8;33.3
50166;BME280;36071;48.140;11.516;2022-08-01T11:02:04;95610.0;;;30.3;33.7
50166;BME280;36071;48.140;11.516;2022-08-01T11:07:04;95610.0;;;30.5;33.7
50166;BME280;36071;48.140;11.516;2022-08-01T11:12:05;95600.0;;;29.9;33.8
50166;BME280;36071;48.140;11.516;2022-08-01T11:22:03;95590.0;;;30.5;32.3
50166;BME280;36071;48.140;11.516;2022-08-01T11:27:20;95610.0;;;30.7;31.6
50166;BME280;36071;48.140;11.516;2022-08-01T11:32:23;95600.0;;;31.2;31.7
50166;BME280;36071;48.140;11.516;2022-08-01T11:37:22;95590.0;;;31.1;31.6
50166;BME280;36071;48.140;11.516;2022-08-01T11:42:22;95600.0;;;30.9;31.6
50166;BME280;36071;48.140;11.516;2022-08-01T11:47:04;95590.0;;;30.1;32.1
50166;BME280;36071;48.140;11.516;2022-08-01T11:52:04;95600.0;;;30.6;32.0
50166;BME280;36071;48.140;11.516;2022-08-01T11:57:04;95590.0;;;30.8;31.8
50166;BME280;36071;48.140;11.516;2022-08-01T12:02:03;95580.0;;;31.1;30.7
50166;BME280;36071;48.140;11.516;2022-08-01T12:07:11;95590.0;;;31.1;30.7
50166;BME280;36071;48.140;11.516;2022-08-01T12:12:03;95580.0;;;30.3;30.3
50166;BME280;36071;48.140;11.516;2022-08-01T12:17:03;95570.0;;;30.6;30.5
50166;BME280;36071;48.140;11.516;2022-08-01T12:22:07;95570.0;;;30.8;30.9
50166;BME280;36071;48.140;11.516;2022-08-01T12:27:05;95570.0;;;31.0;29.5
50166;BME280;36071;48.140;11.516;2022-08-01T12:32:15;95550.0;;;31.2;29.6
50166;BME280;36071;48.140;11.516;2022-08-01T12:37:03;95560.0;;;30.8;30.2
50166;BME280;36071;48.140;11.516;2022-08-01T12:42:05;95560.0;;;31.0;30.5
50166;BME280;36071;48.140;11.516;2022-08-01T12:47:04;95550.0;;;30.9;29.9
50166;BME280;36071;48.140;11.516;2022-08-01T12:52:03;95540.0;;;30.9;30.3
50166;BME280;36071;48.140;11.516;2022-08-01T12:57:03;95540.0;;;30.8;29.7
50166;BME280;36071;48.140;11.516;2022-08-01T13:02:07;95540.0;;;31.0;30.1
50166;BME280;36071;48.140;11.516;2022-08-01T13:07:03;95540.0;;;30.5;28.9
50166;BME280;36071;48.140;11.516;2022-08-01T13:12:07;95540.0;;;30.0;30.0
50166;BME280;36071;48.140;11.516;2022-08-01T13:17:03;95550.0;;;29.6;32.1
50166;BME280;36071;48.140;11.516;2022-08-01T13:22:03;95550.0;;;29.4;34.6
50166;BME280;36071;48.140;11.516;2022-08-01T13:27:03;95540.0;;;29.1;36.4
50166;BME280;36071;48.140;11.516;2022-08-01T13:32:11;95550.0;;;28.9;36.1
50166;BME280;36071;48.140;11.516;2022-08-01T13:37:03;95530.0;;;29.1;36.6
50166;BME280;36071;48.140;11.516;2022-08-01T13:42:03;95530.0;;;29.1;36.3
50166;BME280;36071;48.140;11.516;2022-08-01T13:47:04;95540.0;;;29.1;35.3
50166;BME280;36071;48.140;11.516;2022-08-01T13:52:03;95560.0;;;28.8;34.7
50166;BME280;36071;48.140;11.516;2022-08-01T13:57:03;95550.0;;;28.8;34.7
50166;BME280;36071;48.140;11.516;2022-08-01T14:02:03;95560.0;;;28.7;35.0
50166;BME280;36071;48.140;11.516;2022-08-01T14:07:03;95570.0;;;28.5;35.2
50166;BME280;36071;48.140;11.516;2022-08-01T14:12:03;95590.0;;;27.7;39.0
50166;BME280;36071;48.140;11.516;2022-08-01T14:17:04;95580.0;;;27.7;40.8
50166;BME280;36071;48.140;11.516;2022-08-01T14:22:03;95580.0;;;27.6;41.7
50166;BME280;36071;48.140;11.516;2022-08-01T14:27:03;95560.0;;;27.7;42.5
50166;BME280;36071;48.140;11.516;2022-08-01T14:32:06;95560.0;;;27.8;42.7
50166;BME280;36071;48.140;11.516;2022-08-01T14:37:03;95570.0;;;27.9;42.8
50166;BME280;36071;48.140;11.516;2022-08-01T14:42:03;95570.0;;;27.8;42.5
50166;BME280;36071;48.140;11.516;2022-08-01T14:47:03;95570.0;;;27.8;42.4
50166;BME280;36071;48.140;11.516;2022-08-01T14:52:03;95580.0;;;27.6;42.1
50166;BME280;36071;48.140;11.516;2022-08-01T14:57:03;95580.0;;;27.7;41.9
50166;BME280;36071;48.140;11.516;2022-08-01T15:02:03;95590.0;;;27.5;42.0
50166;BME280;36071;48.140;11.516;2022-08-01T15:07:03;95590.0;;;27.2;42.1
50166;BME280;36071;48.140;11.516;2022-08-01T15:12:03;95590.0;;;27.1;42.4
50166;BME280;36071;48.140;11.516;2022-08-01T15:17:03;95590.0;;;27.0;42.3
50166;BME280;36071;48.140;11.516;2022-08-01T15:22:03;95590.0;;;27.0;42.7
50166;BME280;36071;48.140;11.516;2022-08-01T15:27:04;95580.0;;;27.0;42.2
50166;BME280;36071;48.140;11.516;2022-08-01T15:32:04;95580.0;;;26.7;42.6
50166;BME280;36071;48.140;11.516;2022-08-01T15:37:03;95580.0;;;26.5;43.9
50166;BME280;36071;48.140;11.516;2022-08-01T15:42:04;95600.0;;;26.4;45.0
50166;BME280;36071;48.140;11.516;2022-08-01T15:47:03;95600.0;;;26.1;46.3
50166;BME280;36071;48.140;11.516;2022-08-01T15:52:04;95600.0;;;26.2;46.1
50166;BME280;36071;48.140;11.516;2022-08-01T15:57:03;95600.0;;;26.1;45.7
50166;BME280;36071;48.140;11.516;2022-08-01T16:02:03;95610.0;;;26.0;45.9
50166;BME280;36071;48.140;11.516;2022-08-01T16:07:03;95610.0;;;25.8;46.2
50166;BME280;36071;48.140;11.516;2022-08-01T16:12:03;95630.0;;;25.6;46.2
50166;BME280;36071;48.140;11.516;2022-08-01T16:17:03;95640.0;;;25.3;47.1
50166;BME280;36071;48.140;11.516;2022-08-01T16:22:03;95630.0;;;25.2;46.6
50166;BME280;36071;48.140;11.516;2022-08-01T16:27:03;95630.0;;;25.1;46.3
50166;BME280;36071;48.140;11.516;2022-08-01T16:32:03;95610.0;;;25.2;45.8
50166;BME280;36071;48.140;11.516;2022-08-01T16:37:03;95580.0;;;25.2;45.4
50166;BME280;36071;48.140;11.516;2022-08-01T16:42:03;95580.0;;;25.2;45.5
50166;BME280;36071;48.140;11.516;2022-08-01T16:47:03;95570.0;;;25.4;45.3
50166;BME280;36071;48.140;11.516;2022-08-01T16:52:03;95570.0;;;25.2;46.2
50166;BME280;36071;48.140;11.516;2022-08-01T16:57:03;95530.0;;;24.9;45.1
50166;BME280;36071;48.140;11.516;2022-08-01T17:02:03;95540.0;;;25.3;44.8
50166;BME280;36071;48.140;11.516;2022-08-01T17:07:03;95530.0;;;25.3;45.1
50166;BME280;36071;48.140;11.516;2022-08-01T17:12:03;95550.0;;;25.5;44.8
50166;BME280;36071;48.140;11.516;2022-08-01T17:17:03;95540.0;;;25.5;44.3
50166;BME280;36071;48.140;11.516;2022-08-01T17:22:03;95550.0;;;25.5;43.8
50166;BME280;36071;48.140;11.516;2022-08-01T17:27:03;95550.0;;;25.5;44.5
50166;BME280;36071;48.140;11.516;2022-08-01T17:32:03;95550.0;;;25.4;44.4
50166;BME280;36071;48.140;11.516;2022-08-01T17:37:03;95570.0;;;25.4;44.1
50166;BME280;36071;48.140;11.516;2022-08-01T17:42:03;95570.0;;;25.3;43.5
50166;BME280;36071;48.140;11.516;2022-08-01T17:47:03;95570.0;;;25.2;44.0
50166;BME280;36071;48.140;11.516;2022-08-01T17:52:04;95580.0;;;25.3;44.5
50166;BME280;36071;48.140;11.516;2022-08-01T17:57:03;95580.0;;;25.4;44.2
50166;BME280;36071;48.140;11.516;2022-08-01T18:02:03;95600.0;;;25.3;44.5
50166;BME280;36071;48.140;11.516;2022-08-01T18:07:03;95600.0;;;25.1;44.6
50166;BME280;36071;48.140;11.516;2022-08-01T18:12:04;95610.0;;;25.0;45.2
50166;BME280;36071;48.140;11.516;2022-08-01T18:17:03;95600.0;;;24.9;45.9
50166;BME280;36071;48.140;11.516;2022-08-01T18:22:03;95610.0;;;24.9;47.2
50166;BME280;36071;48.140;11.516;2022-08-01T18:27:03;95610.0;;;24.7;49.0
50166;BME280;36071;48.140;11.516;2022-08-01T18:32:03;95620.0;;;24.5;49.3
50166;BME280;36071;48.140;11.516;2022-08-01T18:37:03;95610.0;;;24.4;48.5
50166;BME280;36071;48.140;11.516;2022-08-01T18:42:03;95600.0;;;24.4;48.8
50166;BME280;36071;48.140;11.516;2022-08-01T18:47:03;95600.0;;;24.5;48.0
50166;BME280;36071;48.140;11.516;2022-08-01T18:52:03;95620.0;;;24.3;48.1
50166;BME280;36071;48.140;11.516;2022-08-01T18:57:03;95640.0;;;23.9;51.4
50166;BME280;36071;48.140;11.516;2022-08-01T19:02:03;95640.0;;;23.6;59.0
50166;BME280;36071;48.140;11.516;2022-08-01T19:07:03;95640.0;;;23.4;59.0
50166;BME280;36071;48.140;11.516;2022-08-01T19:12:03;95660.0;;;23.1;63.2
50166;BME280;36071;48.140;11.516;2022-08-01T19:17:03;95670.0;;;23.1;61.8
50166;BME280;36071;48.140;11.516;2022-08-01T19:22:03;95660.0;;;23.0;63.2
50166;BME280;36071;48.140;11.516;2022-08-01T19:27:04;95660.0;;;23.0;62.1
50166;BME280;36071;48.140;11.516;2022-08-01T19:32:04;95670.0;;;23.0;61.2
50166;BME280;36071;48.140;11.516;2022-08-01T19:37:03;95670.0;;;23.0;61.6
50166;BME280;36071;48.140;11.516;2022-08-01T19:42:03;95680.0;;;23.0;61.0
50166;BME280;36071;48.140;11.516;2022-08-01T19:47:03;95680.0;;;22.9;63.4
50166;BME280;36071;48.140;11.516;2022-08-01T19:52:04;95700.0;;;22.9;63.1
50166;BME280;36071;48.140;11.516;2022-08-01T19:57:04;95710.0;;;22.6;64.6
50166;BME280;36071;48.140;11.516;2022-08-01T20:02:03;95750.0;;;22.4;65.8
50166;BME280;36071;48.140;11.516;2022-08-01T20:07:03;95720.0;;;22.4;67.2
50166;BME280;36071;48.140;11.516;2022-08-01T20:12:03;95700.0;;;22.4;66.4
50166;BME280;36071;48.140;11.516;2022-08-01T20:17:03;95710.0;;;22.4;62.4
50166;BME280;36071;48.140;11.516;2022-08-01T20:22:05;95690.0;;;22.3;65.5
50166;BME280;36071;48.140;11.516;2022-08-01T20:27:03;95690.0;;;22.1;67.5
50166;BME280;36071;48.140;11.516;2022-08-01T20:32:03;95690.0;;;22.2;65.7
50166;BME280;36071;48.140;11.516;2022-08-01T20:37:04;95690.0;;;22.1;67.6
50166;BME280;36071;48.140;11.516;2022-08-01T20:42:04;95680.0;;;22.1;66.4
50166;BME280;36071;48.140;11.516;2022-08-01T20:47:03;95690.0;;;22.2;65.7
50166;BME280;36071;48.140;11.516;2022-08-01T20:52:03;95690.0;;;22.1;66.0
50166;BME280;36071;48.140;11.516;2022-08-01T20:57:04;95690.0;;;22.0;65.6
50166;BME280;36071;48.140;11.516;2022-08-01T21:02:05;95710.0;;;22.0;66.9
50166;BME280;36071;48.140;11.516;2022-08-01T21:07:05;95720.0;;;21.9;68.9
50166;BME280;36071;48.140;11.516;2022-08-01T21:12:04;95730.0;;;21.9;69.9
50166;BME280;36071;48.140;11.516;2022-08-01T21:17:04;95730.0;;;21.7;69.7
50166;BME280;36071;48.140;11.516;2022-08-01T21:22:05;95750.0;;;21.6;69.5
50166;BME280;36071;48.140;11.516;2022-08-01T21:27:03;95750.0;;;21.3;69.7
50166;BME280;36071;48.140;11.516;2022-08-01T21:32:03;95800.0;;;21.4;69.4
50166;BME280;36071;48.140;11.516;2022-08-01T21:37:04;95800.0;;;21.1;70.3
50166;BME280;36071;48.140;11.516;2022-08-01T21:42:04;95810.0;;;21.0;70.4
50166;BME280;36071;48.140;11.516;2022-08-01T21:47:03;95810.0;;;20.9;70.3
50166;BME280;36071;48.140;11.516;2022-08-01T21:52:04;95810.0;;;20.7;69.9
50166;BME280;36071;48.140;11.516;2022-08-01T21:57:05;95810.0;;;20.5;69.0
50166;BME280;36071;48.140;11.516;2022-08-01T22:02:06;95800.0;;;20.6;67.5
50166;BME280;36071;48.140;11.516;2022-08-01T22:07:03;95800.0;;;20.6;66.2
50166;BME280;36071;48.140;11.516;2022-08-01T22:12:04;95810.0;;;20.2;66.5
50166;BME280;36071;48.140;11.516;2022-08-01T22:17:03;95800.0;;;20.2;66.8
50166;BME280;36071;48.140;11.516;2022-08-01T22:22:03;95790.0;;;20.3;66.3
50166;BME280;36071;48.140;11.516;2022-08-01T22:27:03;95790.0;;;20.2;66.9
50166;BME280;36071;48.140;11.516;2022-08-01T22:32:03;95790.0;;;20.3;66.6
50166;BME280;36071;48.140;11.516;2022-08-01T22:37:03;95780.0;;;20.2;65.5
50166;BME280;36071;48.140;11.516;2022-08-01T22:42:04;95770.0;;;20.1;65.2
50166;BME280;36071;48.140;11.516;2022-08-01T22:47:05;95780.0;;;20.0;66.4
50166;BME280;36071;48.140;11.516;2022-08-01T22:52:04;95770.0;;;19.7;66.9
50166;BME280;36071;48.140;11.516;2022-08-01T22:57:04;95770.0;;;20.0;64.7
50166;BME280;36071;48.140;11.516;2022-08-01T23:02:03;95760.0;;;19.6;66.9
50166;BME280;36071;48.140;11.516;2022-08-01T23:07:04;95750.0;;;19.7;65.9
50166;BME280;36071;48.140;11.516;2022-08-01T23:12:03;95760.0;;;19.7;65.7
50166;BME280;36071;48.140;11.516;2022-08-01T23:17:04;95760.0;;;19.6;66.6
50166;BME280;36071;48.140;11.516;2022-08-01T23:22:03;95750.0;;;19.6;66.0
50166;BME280;36071;48.140;11.516;2022-08-01T23:27:03;95760.0;;;19.5;66.2
50166;BME280;36071;48.140;11.516;2022-08-01T23:32:03;95750.0;;;19.4;67.0
50166;BME280;36071;48.140;11.516;2022-08-01T23:37:03;95750.0;;;19.4;67.6
50166;BME280;36071;48.140;11.516;2022-08-01T23:42:03;95760.0;;;19.3;68.4
50166;BME280;36071;48.140;11.516;2022-08-01T23:47:03;95760.0;;;19.1;69.1
50166;BME280;36071;48.140;11.516;2022-08-01T23:52:03;95750.0;;;19.1;69.6
50166;BME280;36071;48.140;11.516;2022-08-01T23:57:03;95770.0;;;19.0;69.6
